Time;durP1;ratioP1;P1;durP2;ratioP2;P2;SDS_P1;SDS_P2;PMS_P1;PMS_P2;Temp;Humidity;BMP_temperature;BMP_pressure;BME280_temperature;BME280_humidity;BME280_pressure;Samples;Min_cycle;Max_cycle;Signal;HPM_P1;HPM_P2
2021/12/08 00:01:52;;;;;;;2.87;2.23;;;;;;;;;;5057533;28;20678;-78
2021/12/08 00:04:21;;;;;;;1.63;1.57;;;;;;;;;;5057107;28;20229;-78
2021/12/08 00:06:48;;;;;;;1.77;1.73;;;;;;;;;;5056372;28;20604;-78
2021/12/08 00:09:27;;;;;;;2.60;2.40;;;;;;;;;;5056901;28;20624;-78
2021/12/08 00:14:38;;;;;;;4.60;2.20;;;;;;;;;;5055899;28;20758;-78
2021/12/08 00:17:06;;;;;;;2.40;2.20;;;;;;;;;;5056444;28;20230;-78
2021/12/08 00:19:34;;;;;;;3.33;2.50;;;;;;;;;;5054718;28;20229;-78
2021/12/08 00:22:01;;;;;;;5.50;2.47;;;;;;;;;;5055939;28;20290;-78
2021/12/08 00:24:28;;;;;;;2.47;2.10;;;;;;;;;;5056166;28;20237;-78
2021/12/08 00:26:56;;;;;;;1.80;1.73;;;;;;;;;;5056274;28;20226;-78
2021/12/08 00:29:23;;;;;;;2.17;2.07;;;;;;;;;;5055729;28;20229;-78
2021/12/08 00:31:50;;;;;;;2.40;2.20;;;;;;;;;;5056154;28;20202;-78
2021/12/08 00:34:17;;;;;;;2.00;1.90;;;;;;;;;;5056317;28;20240;-78
2021/12/08 00:36:50;;;;;;;1.80;1.70;;;;;;;;;;5056666;28;20228;-78
2021/12/08 00:39:17;;;;;;;6.47;2.33;;;;;;;;;;5056151;28;20290;-79
2021/12/08 00:41:44;;;;;;;3.83;1.90;;;;;;;;;;5056761;28;20198;-78
2021/12/08 00:44:11;;;;;;;1.93;1.83;;;;;;;;;;5056182;28;20585;-78
2021/12/08 00:46:38;;;;;;;1.80;1.70;;;;;;;;;;5056190;28;20228;-79
2021/12/08 00:49:05;;;;;;;2.07;1.97;;;;;;;;;;5056633;28;20217;-78
2021/12/08 00:51:32;;;;;;;2.37;1.93;;;;;;;;;;5056317;28;20206;-79
2021/12/08 00:54:01;;;;;;;1.80;1.70;;;;;;;;;;5055851;28;20205;-78
2021/12/08 00:56:29;;;;;;;5.80;2.40;;;;;;;;;;5052317;28;20198;-78
2021/12/08 00:58:56;;;;;;;2.27;2.07;;;;;;;;;;5056526;28;20213;-79
2021/12/08 01:01:23;;;;;;;2.20;2.10;;;;;;;;;;5055157;28;20209;-78
2021/12/08 01:03:50;;;;;;;2.43;2.23;;;;;;;;;;5056544;28;20205;-78
2021/12/08 01:06:18;;;;;;;1.80;1.70;;;;;;;;;;5054997;28;20230;-79
2021/12/08 01:08:45;;;;;;;2.50;1.80;;;;;;;;;;5054784;28;20626;-78
2021/12/08 01:11:15;;;;;;;1.87;1.70;;;;;;;;;;5055292;28;20234;-78
2021/12/08 01:13:42;;;;;;;1.87;1.77;;;;;;;;;;5056201;28;20210;-78
2021/12/08 01:16:10;;;;;;;3.10;2.03;;;;;;;;;;5055623;28;20233;-78
2021/12/08 01:18:37;;;;;;;1.83;1.73;;;;;;;;;;5052609;28;20226;-78
2021/12/08 01:21:06;;;;;;;8.77;2.23;;;;;;;;;;5050570;28;20232;-78
2021/12/08 01:23:34;;;;;;;3.50;1.90;;;;;;;;;;5051226;28;20198;-78
2021/12/08 01:26:01;;;;;;;1.80;1.70;;;;;;;;;;5050207;28;20233;-78
2021/12/08 01:28:29;;;;;;;1.30;1.30;;;;;;;;;;5048084;28;20214;-78
2021/12/08 01:30:59;;;;;;;3.00;1.90;;;;;;;;;;5049623;28;20223;-78
2021/12/08 01:33:28;;;;;;;4.43;1.83;;;;;;;;;;5051259;28;20229;-78
2021/12/08 01:35:55;;;;;;;1.50;1.50;;;;;;;;;;5050633;28;20579;-78
2021/12/08 01:38:23;;;;;;;1.53;1.53;;;;;;;;;;5049886;28;20226;-78
2021/12/08 01:40:51;;;;;;;2.33;1.43;;;;;;;;;;5051091;28;20239;-78
2021/12/08 01:43:24;;;;;;;2.00;1.90;;;;;;;;;;5048103;28;20199;-78
2021/12/08 01:46:00;;;;;;;2.20;2.00;;;;;;;;;;5050065;28;20225;-78
2021/12/08 01:48:27;;;;;;;1.93;1.83;;;;;;;;;;5049808;28;20252;-78
2021/12/08 01:50:56;;;;;;;3.90;2.00;;;;;;;;;;5050305;28;20717;-78
2021/12/08 01:53:23;;;;;;;1.90;1.80;;;;;;;;;;5050887;28;20676;-78
2021/12/08 01:55:50;;;;;;;1.70;1.60;;;;;;;;;;5049293;28;20255;-78
2021/12/08 01:58:18;;;;;;;1.70;1.70;;;;;;;;;;5050281;28;20213;-78
2021/12/08 02:00:47;;;;;;;3.40;2.27;;;;;;;;;;5049957;28;20230;-78
2021/12/08 02:03:17;;;;;;;1.90;1.80;;;;;;;;;;5048755;28;20207;-78
2021/12/08 02:05:44;;;;;;;1.53;1.53;;;;;;;;;;5047275;28;20726;-78
2021/12/08 02:08:11;;;;;;;1.80;1.80;;;;;;;;;;5049543;28;20230;-78
2021/12/08 02:10:40;;;;;;;2.10;2.00;;;;;;;;;;5047741;28;20229;-78
2021/12/08 02:13:07;;;;;;;1.93;1.80;;;;;;;;;;5050905;28;20677;-78
2021/12/08 02:15:36;;;;;;;2.00;1.73;;;;;;;;;;5048456;28;20252;-78
2021/12/08 02:18:04;;;;;;;2.00;1.90;;;;;;;;;;5050844;28;20276;-78
2021/12/08 02:20:32;;;;;;;1.90;1.80;;;;;;;;;;5049965;28;20225;-78
2021/12/08 02:23:01;;;;;;;2.10;1.90;;;;;;;;;;5050775;28;20654;-78
2021/12/08 02:25:28;;;;;;;1.60;1.50;;;;;;;;;;5050496;28;20233;-78
2021/12/08 02:27:56;;;;;;;1.40;1.40;;;;;;;;;;5051997;28;20233;-78
2021/12/08 02:30:25;;;;;;;2.80;2.10;;;;;;;;;;5074606;28;20290;-78
2021/12/08 02:46:48;;;;;;;4.00;1.80;;;;;;;;;;5059622;28;20732;-78
2021/12/08 02:49:17;;;;;;;1.80;1.70;;;;;;;;;;5063888;28;20677;-78
2021/12/08 02:51:44;;;;;;;1.53;1.43;;;;;;;;;;5058702;28;20210;-78
2021/12/08 02:54:12;;;;;;;2.37;1.77;;;;;;;;;;5056684;28;20234;-78
2021/12/08 02:56:39;;;;;;;1.90;1.80;;;;;;;;;;5056878;28;20735;-78
2021/12/08 02:59:07;;;;;;;2.50;2.30;;;;;;;;;;5056343;28;20505;-78
2021/12/08 03:01:35;;;;;;;1.57;1.57;;;;;;;;;;5058085;28;20206;-78
2021/12/08 03:04:03;;;;;;;3.80;2.10;;;;;;;;;;5057631;28;20200;-78
2021/12/08 03:06:30;;;;;;;1.80;1.70;;;;;;;;;;5054843;28;20202;-78
2021/12/08 03:08:57;;;;;;;2.37;2.17;;;;;;;;;;5055707;28;20693;-78
2021/12/08 03:11:26;;;;;;;2.47;2.27;;;;;;;;;;5054864;28;20202;-78
2021/12/08 03:14:00;;;;;;;2.20;2.03;;;;;;;;;;5052835;28;20228;-78
2021/12/08 03:16:27;;;;;;;1.60;1.60;;;;;;;;;;5055078;28;20214;-78
2021/12/08 03:18:55;;;;;;;2.00;1.90;;;;;;;;;;5055155;28;20202;-78
2021/12/08 03:21:28;;;;;;;2.17;1.83;;;;;;;;;;5054364;28;20266;-78
2021/12/08 03:24:07;;;;;;;2.00;1.90;;;;;;;;;;5053204;28;20236;-78
2021/12/08 03:26:44;;;;;;;2.40;2.10;;;;;;;;;;5054738;28;20202;-78
2021/12/08 03:29:20;;;;;;;2.10;2.00;;;;;;;;;;5051439;28;20229;-78
2021/12/08 03:31:50;;;;;;;2.40;2.30;;;;;;;;;;5054625;28;20206;-78
2021/12/08 03:34:19;;;;;;;2.43;1.87;;;;;;;;;;5053548;28;20545;-78
2021/12/08 03:36:47;;;;;;;1.83;1.83;;;;;;;;;;5055818;28;20249;-78
2021/12/08 03:39:14;;;;;;;4.90;2.33;;;;;;;;;;5055052;28;20253;-78
2021/12/08 03:41:42;;;;;;;2.57;1.90;;;;;;;;;;5055127;28;20202;-77
2021/12/08 03:44:09;;;;;;;4.77;2.17;;;;;;;;;;5054378;28;20229;-78
2021/12/08 03:46:40;;;;;;;2.13;2.03;;;;;;;;;;5054920;28;20209;-78
2021/12/08 03:49:10;;;;;;;3.07;2.20;;;;;;;;;;5054050;28;20241;-78
2021/12/08 03:51:38;;;;;;;2.07;1.97;;;;;;;;;;5054117;28;20556;-78
2021/12/08 03:54:06;;;;;;;2.00;1.90;;;;;;;;;;5053245;28;20206;-78
2021/12/08 03:56:33;;;;;;;2.40;2.13;;;;;;;;;;5053523;28;20311;-78
2021/12/08 03:59:02;;;;;;;2.17;2.07;;;;;;;;;;5053254;28;20705;-78
2021/12/08 04:01:29;;;;;;;3.13;2.30;;;;;;;;;;5053967;28;20206;-78
2021/12/08 04:04:01;;;;;;;2.33;2.13;;;;;;;;;;5053424;28;20210;-78
2021/12/08 04:06:32;;;;;;;1.83;1.73;;;;;;;;;;5053387;28;20268;-78
2021/12/08 04:09:03;;;;;;;2.00;1.90;;;;;;;;;;5052971;28;20226;-78
2021/12/08 04:11:30;;;;;;;1.80;1.70;;;;;;;;;;5053770;28;20229;-78
2021/12/08 04:13:58;;;;;;;2.00;1.90;;;;;;;;;;5053695;28;20224;-78
2021/12/08 04:16:28;;;;;;;3.33;2.17;;;;;;;;;;5053271;28;20206;-78
2021/12/08 04:18:57;;;;;;;2.10;2.00;;;;;;;;;;5053048;28;20209;-78
2021/12/08 04:21:24;;;;;;;2.27;1.90;;;;;;;;;;5053589;28;20209;-78
2021/12/08 04:23:51;;;;;;;2.07;1.97;;;;;;;;;;5053018;28;20202;-78
2021/12/08 04:26:21;;;;;;;2.43;2.23;;;;;;;;;;5052523;28;20202;-78
2021/12/08 04:28:49;;;;;;;2.23;2.10;;;;;;;;;;5052359;28;20234;-78
2021/12/08 04:31:18;;;;;;;2.10;2.00;;;;;;;;;;5053086;28;20236;-78
2021/12/08 04:33:46;;;;;;;2.30;2.20;;;;;;;;;;5052278;28;20298;-78
2021/12/08 04:36:15;;;;;;;2.27;2.07;;;;;;;;;;5052871;28;20241;-78
2021/12/08 04:38:49;;;;;;;2.30;2.07;;;;;;;;;;5052877;28;20326;-78
2021/12/08 04:41:19;;;;;;;1.87;1.87;;;;;;;;;;5053607;28;20256;-78
2021/12/08 04:43:54;;;;;;;1.70;1.70;;;;;;;;;;5053179;28;20209;-78
2021/12/08 04:46:31;;;;;;;2.47;2.20;;;;;;;;;;5052374;28;20209;-78
2021/12/08 04:49:24;;;;;;;1.80;1.70;;;;;;;;;;5052174;28;20693;-78
2021/12/08 04:51:57;;;;;;;2.03;1.93;;;;;;;;;;5052911;28;20192;-78
2021/12/08 05:00:42;;;;;;;2.70;2.40;;;;;;;;;;5051937;28;20237;-78
2021/12/08 05:03:36;;;;;;;3.23;2.00;;;;;;;;;;5052761;28;20293;-78
2021/12/08 05:06:18;;;;;;;2.60;2.33;;;;;;;;;;5051268;28;20238;-78
2021/12/08 05:08:47;;;;;;;2.07;1.97;;;;;;;;;;5052451;28;20618;-78
2021/12/08 05:11:15;;;;;;;2.20;2.00;;;;;;;;;;5052036;28;20595;-78
2021/12/08 05:13:43;;;;;;;2.13;2.03;;;;;;;;;;5052687;28;20210;-78
2021/12/08 05:16:11;;;;;;;2.00;1.90;;;;;;;;;;5051890;28;20237;-78
2021/12/08 05:18:39;;;;;;;2.20;2.00;;;;;;;;;;5052180;28;20242;-78
2021/12/08 05:21:11;;;;;;;2.10;2.00;;;;;;;;;;5051495;28;20283;-77
2021/12/08 05:23:39;;;;;;;1.83;1.73;;;;;;;;;;5052161;28;20202;-77
2021/12/08 05:26:08;;;;;;;13.43;8.43;;;;;;;;;;5051263;28;20237;-77
2021/12/08 05:28:35;;;;;;;4.53;3.70;;;;;;;;;;5052308;28;20231;-78
2021/12/08 05:31:05;;;;;;;3.00;2.80;;;;;;;;;;5051563;28;20238;-77
2021/12/08 05:33:32;;;;;;;1.90;1.80;;;;;;;;;;5051956;28;20216;-77
2021/12/08 05:36:00;;;;;;;2.47;2.10;;;;;;;;;;5051414;28;20238;-77
2021/12/08 05:38:29;;;;;;;2.67;2.20;;;;;;;;;;5052367;28;20233;-77
2021/12/08 05:40:57;;;;;;;2.00;1.93;;;;;;;;;;5051417;28;20237;-77
2021/12/08 05:43:25;;;;;;;3.27;2.57;;;;;;;;;;5052035;28;20213;-77
2021/12/08 05:45:53;;;;;;;3.30;2.40;;;;;;;;;;5051159;28;20722;-76
2021/12/08 05:48:20;;;;;;;2.33;2.13;;;;;;;;;;5052130;28;20234;-76
2021/12/08 05:50:50;;;;;;;2.27;2.17;;;;;;;;;;5051574;28;20248;-77
2021/12/08 05:53:17;;;;;;;2.20;2.10;;;;;;;;;;5052165;28;20207;-76
2021/12/08 05:55:46;;;;;;;2.73;2.23;;;;;;;;;;5051024;28;20230;-77
2021/12/08 05:58:13;;;;;;;2.07;1.87;;;;;;;;;;5051508;28;20590;-77
2021/12/08 06:00:43;;;;;;;2.37;2.27;;;;;;;;;;5051289;28;20902;-77
2021/12/08 06:03:11;;;;;;;1.93;1.83;;;;;;;;;;5051659;28;20205;-77
2021/12/08 06:05:38;;;;;;;4.93;2.40;;;;;;;;;;5050953;28;20257;-76
2021/12/08 06:08:05;;;;;;;3.43;2.60;;;;;;;;;;5051587;28;20237;-77
2021/12/08 06:10:34;;;;;;;2.97;2.60;;;;;;;;;;5051116;28;20287;-75
2021/12/08 06:13:03;;;;;;;1.63;1.57;;;;;;;;;;5051615;28;20209;-75
2021/12/08 06:15:30;;;;;;;4.40;2.67;;;;;;;;;;5050967;28;20232;-75
2021/12/08 06:17:57;;;;;;;4.50;2.40;;;;;;;;;;5054029;28;20238;-75
2021/12/08 06:20:24;;;;;;;3.83;2.43;;;;;;;;;;5054857;28;20247;-75
2021/12/08 06:22:52;;;;;;;2.70;2.23;;;;;;;;;;5055408;28;20207;-75
2021/12/08 06:25:20;;;;;;;1.67;1.60;;;;;;;;;;5054615;28;20240;-75
2021/12/08 06:27:47;;;;;;;2.67;2.47;;;;;;;;;;5055190;28;20242;-75
2021/12/08 06:30:18;;;;;;;2.13;2.03;;;;;;;;;;5054988;28;20288;-75
2021/12/08 06:32:46;;;;;;;2.90;2.70;;;;;;;;;;5055675;28;20686;-75
2021/12/08 06:35:16;;;;;;;2.90;2.70;;;;;;;;;;5054960;28;20608;-76
2021/12/08 06:37:43;;;;;;;2.97;2.57;;;;;;;;;;5053928;28;20241;-75
2021/12/08 06:40:13;;;;;;;1.30;1.30;;;;;;;;;;5055129;28;20242;-76
2021/12/08 06:42:41;;;;;;;2.33;2.13;;;;;;;;;;5055005;28;20218;-76
2021/12/08 06:45:10;;;;;;;6.90;3.30;;;;;;;;;;5054446;28;20234;-75
2021/12/08 06:47:39;;;;;;;2.00;1.70;;;;;;;;;;5055094;28;20228;-75
2021/12/08 06:50:11;;;;;;;4.07;2.80;;;;;;;;;;5047902;28;20578;-76
2021/12/08 06:52:38;;;;;;;7.77;2.93;;;;;;;;;;5054452;28;20210;-75
2021/12/08 06:55:09;;;;;;;3.13;2.83;;;;;;;;;;5053850;28;20226;-75
2021/12/08 06:57:37;;;;;;;2.23;2.13;;;;;;;;;;5054286;28;20226;-75
2021/12/08 07:00:17;;;;;;;3.70;2.30;;;;;;;;;;5054281;28;20916;-75
2021/12/08 07:03:04;;;;;;;4.60;3.37;;;;;;;;;;5053149;28;20241;-75
2021/12/08 07:06:03;;;;;;;2.63;2.43;;;;;;;;;;5055133;28;20253;-75
2021/12/08 07:08:24;;;;;;;3.63;3.33;;;;;;;;;;5035379;28;20310;-76
2021/12/08 07:10:52;;;;;;;7.63;4.40;;;;;;;;;;5033573;28;20234;-76
2021/12/08 07:13:22;;;;;;;3.87;3.57;;;;;;;;;;5033908;28;20209;-76
2021/12/08 07:15:51;;;;;;;11.53;7.07;;;;;;;;;;5033392;28;20901;-76
2021/12/08 07:18:21;;;;;;;4.43;3.97;;;;;;;;;;5057396;22;20601;-85
2021/12/08 07:20:50;;;;;;;4.63;3.50;;;;;;;;;;5017974;28;20623;-83
2021/12/08 07:23:19;;;;;;;5.57;3.50;;;;;;;;;;5017403;28;20215;-81
2021/12/08 07:25:47;;;;;;;4.77;3.73;;;;;;;;;;5017196;28;20247;-81
2021/12/08 07:28:15;;;;;;;3.67;3.23;;;;;;;;;;5017181;28;20635;-82
2021/12/08 07:30:44;;;;;;;5.90;3.70;;;;;;;;;;5016915;28;20558;-82
2021/12/08 07:33:11;;;;;;;3.70;3.40;;;;;;;;;;5018178;28;20211;-82
2021/12/08 07:35:42;;;;;;;4.37;3.43;;;;;;;;;;5017863;28;20231;-82
2021/12/08 07:38:10;;;;;;;3.13;2.83;;;;;;;;;;5017989;28;20235;-82
2021/12/08 07:40:42;;;;;;;4.50;3.40;;;;;;;;;;5017369;28;20250;-82
2021/12/08 07:43:10;;;;;;;6.50;4.10;;;;;;;;;;5017751;28;20282;-83
2021/12/08 07:45:39;;;;;;;37.80;19.23;;;;;;;;;;5017821;28;20231;-82
2021/12/08 07:48:14;;;;;;;17.93;10.73;;;;;;;;;;5017140;28;20233;-83
2021/12/08 07:50:44;;;;;;;9.13;6.53;;;;;;;;;;5016536;28;20234;-83
2021/12/08 07:53:14;;;;;;;5.80;4.03;;;;;;;;;;5017907;28;20194;-83
2021/12/08 07:55:44;;;;;;;4.33;3.77;;;;;;;;;;5017419;28;20235;-83
2021/12/08 07:58:12;;;;;;;4.47;3.67;;;;;;;;;;5014321;28;20240;-82
2021/12/08 08:00:41;;;;;;;4.20;3.80;;;;;;;;;;5016650;28;20243;-82
2021/12/08 08:03:09;;;;;;;3.40;2.93;;;;;;;;;;5017504;28;20193;-83
2021/12/08 08:05:37;;;;;;;5.43;3.70;;;;;;;;;;5016432;28;20243;-82
2021/12/08 08:08:09;;;;;;;4.33;3.40;;;;;;;;;;5016068;28;20282;-82
2021/12/08 08:10:40;;;;;;;3.40;3.10;;;;;;;;;;5017454;28;20299;-82
2021/12/08 08:13:08;;;;;;;3.67;3.40;;;;;;;;;;5017449;28;20188;-82
2021/12/08 08:15:39;;;;;;;4.30;3.50;;;;;;;;;;5015632;28;20256;-82
2021/12/08 08:18:09;;;;;;;3.80;3.50;;;;;;;;;;5016037;28;20590;-82
2021/12/08 08:20:37;;;;;;;3.97;3.50;;;;;;;;;;5013961;28;20243;-82
2021/12/08 08:23:06;;;;;;;3.43;3.13;;;;;;;;;;5013294;28;20258;-82
2021/12/08 08:25:40;;;;;;;4.10;3.30;;;;;;;;;;5012606;28;20242;-82
2021/12/08 08:28:08;;;;;;;4.83;3.80;;;;;;;;;;5012698;28;20227;-82
2021/12/08 08:30:38;;;;;;;6.07;3.93;;;;;;;;;;5011056;28;20367;-82
2021/12/08 08:33:05;;;;;;;4.20;2.97;;;;;;;;;;5012874;28;20212;-83
2021/12/08 08:35:35;;;;;;;5.43;4.10;;;;;;;;;;5001904;28;20246;-82
2021/12/08 08:38:03;;;;;;;6.13;3.77;;;;;;;;;;4998111;28;20729;-82
2021/12/08 08:40:36;;;;;;;5.00;4.00;;;;;;;;;;5012850;28;20223;-84
2021/12/08 08:43:04;;;;;;;6.60;4.27;;;;;;;;;;5014336;28;20543;-82
2021/12/08 08:45:32;;;;;;;5.30;4.03;;;;;;;;;;5013475;28;20716;-82
2021/12/08 08:48:00;;;;;;;5.73;4.20;;;;;;;;;;5014216;28;20223;-82
2021/12/08 08:50:30;;;;;;;5.70;3.77;;;;;;;;;;5013783;28;20232;-83
2021/12/08 08:52:58;;;;;;;5.03;4.23;;;;;;;;;;5013626;28;20206;-83
2021/12/08 08:55:27;;;;;;;4.60;3.93;;;;;;;;;;5013840;28;20235;-83
2021/12/08 08:57:56;;;;;;;5.47;3.50;;;;;;;;;;5014461;28;20229;-81
2021/12/08 09:00:26;;;;;;;5.03;4.37;;;;;;;;;;5017773;28;20251;-82
2021/12/08 09:02:54;;;;;;;5.03;4.20;;;;;;;;;;5016475;28;20202;-83
2021/12/08 09:05:22;;;;;;;16.43;11.67;;;;;;;;;;5016363;28;20236;-83
2021/12/08 09:07:51;;;;;;;12.40;8.80;;;;;;;;;;5016067;28;20238;-83
2021/12/08 09:10:21;;;;;;;11.80;6.90;;;;;;;;;;5015783;28;20242;-83
2021/12/08 09:12:50;;;;;;;10.00;8.23;;;;;;;;;;5015934;28;20211;-82
2021/12/08 09:15:21;;;;;;;14.40;10.10;;;;;;;;;;5016058;28;20236;-82
2021/12/08 09:17:50;;;;;;;20.80;15.77;;;;;;;;;;5020193;28;20238;-83
2021/12/08 09:20:21;;;;;;;16.50;10.93;;;;;;;;;;5001849;28;20252;-83
2021/12/08 09:22:55;;;;;;;10.13;8.10;;;;;;;;;;5021417;28;20212;-83
2021/12/08 09:25:25;;;;;;;17.00;12.40;;;;;;;;;;5007523;28;20225;-83
2021/12/08 09:27:55;;;;;;;6.43;4.70;;;;;;;;;;5023640;28;20329;-83
2021/12/08 09:30:25;;;;;;;4.67;3.87;;;;;;;;;;5022727;28;20251;-83
2021/12/08 09:32:54;;;;;;;6.00;4.10;;;;;;;;;;5022965;28;20205;-83
2021/12/08 09:35:23;;;;;;;5.13;3.87;;;;;;;;;;5017200;28;20231;-83
2021/12/08 09:37:52;;;;;;;5.80;4.03;;;;;;;;;;5003821;28;20707;-83
2021/12/08 09:40:26;;;;;;;7.30;3.93;;;;;;;;;;5003116;28;20250;-82
2021/12/08 09:42:56;;;;;;;3.87;3.10;;;;;;;;;;5003696;28;20239;-83
2021/12/08 09:45:26;;;;;;;4.43;3.03;;;;;;;;;;5003054;28;20243;-82
2021/12/08 09:47:53;;;;;;;8.60;6.00;;;;;;;;;;5002683;28;20233;-82
2021/12/08 09:50:20;;;;;;;5.93;4.30;;;;;;;;;;4994632;28;20246;-84
2021/12/08 09:52:50;;;;;;;8.93;5.27;;;;;;;;;;4992739;28;20216;-85
2021/12/08 09:55:17;;;;;;;8.73;6.67;;;;;;;;;;4992390;28;20748;-82
2021/12/08 09:57:45;;;;;;;5.70;4.47;;;;;;;;;;4995334;28;20266;-84
2021/12/08 10:00:15;;;;;;;10.90;7.07;;;;;;;;;;4994996;28;20242;-86
2021/12/08 10:02:43;;;;;;;5.90;5.23;;;;;;;;;;4994300;28;20269;-83
2021/12/08 10:05:12;;;;;;;25.53;21.67;;;;;;;;;;5006969;28;20258;-84
2021/12/08 10:07:40;;;;;;;6.07;4.70;;;;;;;;;;5012945;28;20690;-85
2021/12/08 10:10:08;;;;;;;8.13;5.60;;;;;;;;;;5013671;28;20670;-84
2021/12/08 10:12:37;;;;;;;5.03;4.13;;;;;;;;;;5017545;28;20214;-84
2021/12/08 10:15:05;;;;;;;13.00;10.90;;;;;;;;;;5005051;28;20325;-84
2021/12/08 10:17:33;;;;;;;6.10;5.50;;;;;;;;;;4993604;28;20235;-84
2021/12/08 10:20:15;;;;;;;12.50;11.10;;;;;;;;;;4995097;28;20288;-83
2021/12/08 10:22:43;;;;;;;23.90;19.37;;;;;;;;;;4994652;28;20204;-83
2021/12/08 10:25:12;;;;;;;17.00;12.63;;;;;;;;;;4995672;28;20267;-83
2021/12/08 10:27:58;;;;;;;12.10;6.53;;;;;;;;;;5008623;28;20226;-84
2021/12/08 10:30:25;;;;;;;8.40;5.70;;;;;;;;;;5005450;28;20252;-85
2021/12/08 10:32:54;;;;;;;10.03;5.10;;;;;;;;;;5011834;28;20219;-85
2021/12/08 10:35:39;;;;;;;6.50;4.47;;;;;;;;;;5011141;28;20614;-84
2021/12/08 10:38:08;;;;;;;10.10;9.03;;;;;;;;;;5010341;28;20321;-85
2021/12/08 10:40:35;;;;;;;5.40;4.90;;;;;;;;;;5011079;28;20337;-84
2021/12/08 10:43:13;;;;;;;9.20;4.50;;;;;;;;;;5011493;28;20693;-85
2021/12/08 10:45:40;;;;;;;9.73;6.50;;;;;;;;;;5010965;28;20238;-85
2021/12/08 10:48:08;;;;;;;10.97;6.60;;;;;;;;;;5011478;28;20231;-85
2021/12/08 10:56:10;;;;;;;6.80;5.57;;;;;;;;;;5010837;28;20241;-85
2021/12/08 10:58:39;;;;;;;4.87;3.87;;;;;;;;;;5003172;28;20232;-84
2021/12/08 11:01:11;;;;;;;7.57;5.37;;;;;;;;;;5009868;28;20237;-85
2021/12/08 11:03:39;;;;;;;10.83;7.77;;;;;;;;;;5012214;28;20199;-84
2021/12/08 11:06:07;;;;;;;5.47;3.73;;;;;;;;;;5014137;28;20312;-85
2021/12/08 11:08:37;;;;;;;6.67;4.20;;;;;;;;;;5008585;28;20227;-85
2021/12/08 11:11:06;;;;;;;5.23;4.73;;;;;;;;;;5011268;28;20242;-85
2021/12/08 11:13:34;;;;;;;8.40;6.83;;;;;;;;;;5016447;28;20214;-83
2021/12/08 11:16:06;;;;;;;5.83;5.23;;;;;;;;;;5016802;28;20725;-84
2021/12/08 11:18:38;;;;;;;4.90;4.40;;;;;;;;;;5010628;28;20247;-84
2021/12/08 11:21:07;;;;;;;7.10;4.27;;;;;;;;;;4996402;28;20258;-84
2021/12/08 11:23:42;;;;;;;6.13;5.00;;;;;;;;;;4995167;28;20730;-84
2021/12/08 11:26:17;;;;;;;6.50;5.20;;;;;;;;;;4994316;28;20239;-83
2021/12/08 11:28:45;;;;;;;14.87;12.20;;;;;;;;;;4995014;28;20246;-86
2021/12/08 11:31:14;;;;;;;7.80;6.60;;;;;;;;;;5001957;28;20231;-86
2021/12/08 11:33:44;;;;;;;11.40;6.43;;;;;;;;;;5014613;28;20301;-86
2021/12/08 11:36:12;;;;;;;11.90;6.83;;;;;;;;;;5014908;28;20242;-86
2021/12/08 11:38:42;;;;;;;8.90;5.20;;;;;;;;;;5014259;28;20227;-86
2021/12/08 11:41:23;;;;;;;6.50;4.50;;;;;;;;;;5013625;28;20238;-86
2021/12/08 11:43:52;;;;;;;11.27;5.23;;;;;;;;;;5014001;28;20211;-85
2021/12/08 11:46:20;;;;;;;8.13;5.03;;;;;;;;;;5014012;28;20550;-86
2021/12/08 11:49:02;;;;;;;5.13;4.63;;;;;;;;;;5013906;28;20309;-86
2021/12/08 11:51:29;;;;;;;5.53;4.77;;;;;;;;;;5033819;28;20772;-86
2021/12/08 11:53:58;;;;;;;7.70;5.37;;;;;;;;;;5033408;28;20598;-86
2021/12/08 11:56:35;;;;;;;14.03;10.17;;;;;;;;;;5033799;28;20584;-84
2021/12/08 11:59:04;;;;;;;30.93;21.30;;;;;;;;;;5033150;28;20226;-85
2021/12/08 12:01:31;;;;;;;5.03;4.47;;;;;;;;;;5034170;28;20212;-84
2021/12/08 12:03:58;;;;;;;5.53;4.10;;;;;;;;;;5032709;28;20661;-85
2021/12/08 12:06:28;;;;;;;6.13;5.53;;;;;;;;;;5033079;28;20250;-85
2021/12/08 12:08:58;;;;;;;13.43;11.40;;;;;;;;;;5032785;28;20305;-85
2021/12/08 12:11:26;;;;;;;15.10;13.10;;;;;;;;;;5033673;28;20237;-85
2021/12/08 12:13:54;;;;;;;10.70;9.53;;;;;;;;;;5031732;28;20207;-85
2021/12/08 12:16:21;;;;;;;12.30;6.90;;;;;;;;;;5013076;28;20213;-85
2021/12/08 12:18:50;;;;;;;8.40;6.07;;;;;;;;;;5012152;28;20712;-85
2021/12/08 12:21:22;;;;;;;6.90;4.57;;;;;;;;;;5013847;28;20249;-85
2021/12/08 12:23:53;;;;;;;9.80;8.40;;;;;;;;;;5012944;28;20202;-84
2021/12/08 12:26:28;;;;;;;16.27;14.03;;;;;;;;;;5013550;28;20198;-84
2021/12/08 12:29:08;;;;;;;4.73;4.27;;;;;;;;;;5012866;28;20230;-85
2021/12/08 12:31:43;;;;;;;6.63;4.17;;;;;;;;;;5013651;28;20608;-84
2021/12/08 12:34:22;;;;;;;7.47;6.27;;;;;;;;;;5013964;28;20237;-84
2021/12/08 12:36:49;;;;;;;6.07;5.47;;;;;;;;;;5012824;28;20572;-84
2021/12/08 12:39:17;;;;;;;5.60;5.10;;;;;;;;;;5012081;28;20719;-85
2021/12/08 12:41:46;;;;;;;5.30;4.80;;;;;;;;;;5012971;28;20203;-85
2021/12/08 12:44:19;;;;;;;9.20;5.53;;;;;;;;;;5012692;28;20242;-85
2021/12/08 12:47:05;;;;;;;5.10;4.60;;;;;;;;;;5014704;28;20192;-84
2021/12/08 12:49:33;;;;;;;5.40;4.90;;;;;;;;;;5013252;28;20285;-84
2021/12/08 12:52:01;;;;;;;6.20;5.10;;;;;;;;;;5012781;28;20698;-84
2021/12/08 12:54:29;;;;;;;6.33;5.80;;;;;;;;;;5012157;28;20235;-85
2021/12/08 12:56:58;;;;;;;4.83;4.33;;;;;;;;;;5012816;28;20219;-85
2021/12/08 12:59:28;;;;;;;5.60;3.67;;;;;;;;;;5012626;28;20239;-85
2021/12/08 13:02:06;;;;;;;4.17;3.50;;;;;;;;;;5012633;28;20218;-85
2021/12/08 13:04:35;;;;;;;6.90;3.63;;;;;;;;;;5002808;28;20245;-84
2021/12/08 13:07:02;;;;;;;4.30;3.60;;;;;;;;;;5010023;28;20227;-85
2021/12/08 13:09:40;;;;;;;5.47;3.43;;;;;;;;;;4992777;28;20227;-85
2021/12/08 13:12:10;;;;;;;6.30;4.40;;;;;;;;;;4993792;28;20574;-84
2021/12/08 13:14:37;;;;;;;4.83;4.43;;;;;;;;;;4992452;28;20243;-85
2021/12/08 13:17:09;;;;;;;4.47;3.57;;;;;;;;;;4992815;28;20208;-85
2021/12/08 13:19:40;;;;;;;7.13;4.20;;;;;;;;;;4992400;28;20251;-85
2021/12/08 13:22:07;;;;;;;4.57;4.10;;;;;;;;;;4993302;28;20567;-84
2021/12/08 13:24:39;;;;;;;4.53;4.03;;;;;;;;;;4992701;28;20727;-84
2021/12/08 13:27:07;;;;;;;6.60;4.80;;;;;;;;;;4992261;28;20208;-84
2021/12/08 13:29:37;;;;;;;6.73;4.90;;;;;;;;;;4992336;28;20228;-84
2021/12/08 13:32:12;;;;;;;6.53;5.53;;;;;;;;;;4992984;28;20211;-84
2021/12/08 13:34:40;;;;;;;7.77;5.33;;;;;;;;;;4992042;28;20257;-84
2021/12/08 13:37:14;;;;;;;6.83;4.90;;;;;;;;;;4995524;28;20211;-85
2021/12/08 13:39:43;;;;;;;7.40;5.20;;;;;;;;;;5011478;28;20601;-85
2021/12/08 13:42:12;;;;;;;9.47;5.70;;;;;;;;;;5012335;28;20211;-84
2021/12/08 13:44:41;;;;;;;6.83;4.37;;;;;;;;;;5011321;28;20246;-84
2021/12/08 13:47:09;;;;;;;7.97;4.87;;;;;;;;;;5012040;28;20557;-84
2021/12/08 13:49:48;;;;;;;8.00;4.50;;;;;;;;;;5011770;28;20322;-84
2021/12/08 13:52:17;;;;;;;6.00;4.33;;;;;;;;;;5012909;28;20202;-84
2021/12/08 13:54:45;;;;;;;5.00;4.23;;;;;;;;;;5011476;28;20699;-84
2021/12/08 13:57:27;;;;;;;16.07;10.37;;;;;;;;;;5012080;28;20211;-84
2021/12/08 14:00:00;;;;;;;24.63;14.43;;;;;;;;;;5011149;28;20707;-84
2021/12/08 14:02:28;;;;;;;8.20;6.53;;;;;;;;;;5011771;28;20211;-84
2021/12/08 14:05:00;;;;;;;5.03;4.57;;;;;;;;;;5011183;28;20922;-84
2021/12/08 14:07:27;;;;;;;5.77;5.00;;;;;;;;;;5005778;28;20251;-84
2021/12/08 14:09:56;;;;;;;6.70;4.50;;;;;;;;;;4991921;28;20238;-84
2021/12/08 14:12:23;;;;;;;6.27;4.23;;;;;;;;;;5006189;28;20207;-84
2021/12/08 14:14:57;;;;;;;5.73;4.40;;;;;;;;;;5011744;28;20243;-84
2021/12/08 14:17:29;;;;;;;5.03;4.23;;;;;;;;;;5011822;28;20239;-84
2021/12/08 14:19:56;;;;;;;6.27;4.60;;;;;;;;;;5010851;28;20249;-84
2021/12/08 14:22:36;;;;;;;6.17;4.70;;;;;;;;;;5011807;28;20214;-84
2021/12/08 14:25:04;;;;;;;9.73;4.93;;;;;;;;;;5010871;28;20234;-84
2021/12/08 14:27:31;;;;;;;5.57;4.83;;;;;;;;;;4997479;28;20228;-85
2021/12/08 14:29:58;;;;;;;5.77;4.23;;;;;;;;;;4992554;28;20235;-85
2021/12/08 14:32:25;;;;;;;5.17;4.57;;;;;;;;;;5005762;28;20599;-85
2021/12/08 14:34:53;;;;;;;5.47;4.97;;;;;;;;;;5011122;28;20231;-86
2021/12/08 14:37:21;;;;;;;9.40;4.30;;;;;;;;;;5012482;28;20207;-84
2021/12/08 14:39:50;;;;;;;4.67;4.23;;;;;;;;;;5013993;28;20239;-85
2021/12/08 14:42:20;;;;;;;7.10;4.93;;;;;;;;;;5015519;28;20218;-86
2021/12/08 14:44:51;;;;;;;6.27;4.57;;;;;;;;;;5014935;28;20243;-86
2021/12/08 14:47:21;;;;;;;5.90;4.57;;;;;;;;;;5015590;28;20212;-85
2021/12/08 14:49:50;;;;;;;9.20;4.67;;;;;;;;;;5014598;28;20219;-85
2021/12/08 14:52:22;;;;;;;5.97;4.77;;;;;;;;;;5015572;28;20655;-87
2021/12/08 14:54:50;;;;;;;5.60;4.70;;;;;;;;;;5015220;28;20452;-87
2021/12/08 14:57:19;;;;;;;5.50;4.70;;;;;;;;;;5015513;28;20285;-88
2021/12/08 14:59:49;;;;;;;5.40;4.90;;;;;;;;;;5014341;28;20714;-86
2021/12/08 15:02:21;;;;;;;5.57;5.03;;;;;;;;;;5015121;28;20218;-86
2021/12/08 15:04:48;;;;;;;8.77;4.83;;;;;;;;;;5015682;28;20669;-86
2021/12/08 15:07:19;;;;;;;7.80;5.30;;;;;;;;;;5014747;28;20211;-86
2021/12/08 15:09:57;;;;;;;7.80;5.23;;;;;;;;;;5015051;28;20246;-86
2021/12/08 15:12:24;;;;;;;7.63;5.43;;;;;;;;;;5015304;28;20184;-86
2021/12/08 15:14:52;;;;;;;9.67;6.47;;;;;;;;;;5014671;28;20235;-86
2021/12/08 15:17:27;;;;;;;13.00;8.03;;;;;;;;;;5014651;28;20204;-86
2021/12/08 15:19:54;;;;;;;12.23;7.70;;;;;;;;;;5014659;28;20238;-86
2021/12/08 15:22:26;;;;;;;12.10;7.67;;;;;;;;;;5014841;28;20199;-87
2021/12/08 15:25:08;;;;;;;10.67;8.00;;;;;;;;;;5014723;28;20265;-85